createdAt,value
2019-05-26T00:00:08.076Z,101624.28
2019-05-26T00:02:37.555Z,101622.97
2019-05-26T00:05:10.096Z,101616.75
2019-05-26T00:07:39.640Z,101610.05
2019-05-26T00:10:10.039Z,101603.77
2019-05-26T00:12:39.888Z,101602.91
2019-05-26T00:15:09.856Z,101601.30
2019-05-26T00:17:39.266Z,101601.70
2019-05-26T00:20:09.885Z,101596.06
2019-05-26T00:22:39.299Z,101587.72
2019-05-26T00:25:09.186Z,101590.88
2019-05-26T00:27:38.602Z,101586.86
2019-05-26T00:30:09.546Z,101572.87
2019-05-26T00:32:39.132Z,101563.35
2019-05-26T00:35:09.080Z,101566.38
2019-05-26T00:37:49.116Z,101566.28
2019-05-26T00:40:10.841Z,101556.77
2019-05-26T00:42:40.399Z,101558.63
2019-05-26T00:45:11.649Z,101552.48
2019-05-26T00:47:41.635Z,101544.58
2019-05-26T00:50:11.696Z,101550.27
2019-05-26T00:52:41.178Z,101548.47
2019-05-26T00:55:11.277Z,101543.27
2019-05-26T00:57:40.827Z,101537.20
2019-05-26T01:00:11.567Z,101537.23
2019-05-26T01:02:41.052Z,101534.17
2019-05-26T01:05:10.924Z,101530.78
2019-05-26T01:07:40.339Z,101536.42
2019-05-26T01:10:10.822Z,101526.82
2019-05-26T01:12:40.227Z,101524.66
2019-05-26T01:15:10.314Z,101524.20
2019-05-26T01:17:39.841Z,101523.25
2019-05-26T01:20:09.571Z,101525.41
2019-05-26T01:22:39.003Z,101519.62
2019-05-26T01:25:08.753Z,101528.66
2019-05-26T01:27:38.300Z,101519.39
2019-05-26T01:30:08.676Z,101516.17
2019-05-26T01:32:38.197Z,101515.58
2019-05-26T01:35:08.206Z,101513.83
2019-05-26T01:37:39.792Z,101514.98
2019-05-26T01:40:10.894Z,101505.41
2019-05-26T01:42:40.458Z,101499.27
2019-05-26T01:45:10.344Z,101495.30
2019-05-26T01:47:39.804Z,101494.39
2019-05-26T01:50:09.679Z,101481.16
2019-05-26T01:52:39.200Z,101477.56
2019-05-26T01:55:08.983Z,101482.20
2019-05-26T01:57:38.502Z,101469.56
2019-05-26T02:00:08.953Z,101470.77
2019-05-26T02:02:38.535Z,101473.77
2019-05-26T02:05:08.106Z,101467.63
2019-05-26T02:07:37.555Z,101470.60
2019-05-26T02:10:08.575Z,101466.22
2019-05-26T02:12:39.378Z,101466.12
2019-05-26T02:15:09.734Z,101462.74
2019-05-26T02:17:39.245Z,101456.05
2019-05-26T02:20:09.528Z,101450.35
2019-05-26T02:22:39.013Z,101447.69
2019-05-26T02:25:10.064Z,101445.67
2019-05-26T02:27:39.682Z,101443.55
2019-05-26T02:30:13.688Z,101437.13
2019-05-26T02:32:43.724Z,101440.53
2019-05-26T02:35:13.819Z,101438.82
2019-05-26T02:37:43.514Z,101438.03
2019-05-26T02:40:15.602Z,101430.73
2019-05-26T02:42:45.259Z,101434.16
2019-05-26T02:45:18.800Z,101431.88
2019-05-26T02:47:48.311Z,101430.23
2019-05-26T02:50:18.672Z,101434.16
2019-05-26T02:52:48.869Z,101427.20
2019-05-26T02:55:18.610Z,101423.73
2019-05-26T02:57:48.127Z,101419.80
2019-05-26T03:00:26.405Z,101413.71
2019-05-26T03:02:56.425Z,101412.41
2019-05-26T03:05:26.532Z,101404.44
2019-05-26T03:07:56.745Z,101405.93
2019-05-26T03:10:26.216Z,101396.66
2019-05-26T03:12:57.275Z,101399.45
2019-05-26T03:15:26.764Z,101398.38
2019-05-26T03:17:59.240Z,101398.55
2019-05-26T03:20:33.084Z,101393.34
2019-05-26T03:23:04.529Z,101384.97
2019-05-26T03:25:37.722Z,101384.33
2019-05-26T03:28:08.518Z,101382.84
2019-05-26T03:30:39.400Z,101388.41
2019-05-26T03:33:08.828Z,101390.47
2019-05-26T03:35:38.253Z,101387.28
2019-05-26T03:38:08.061Z,101383.73
2019-05-26T03:40:39.076Z,101381.86
2019-05-26T03:43:08.658Z,101376.59
2019-05-26T03:45:43.980Z,101371.63
2019-05-26T03:48:13.432Z,101369.35
2019-05-26T03:50:42.950Z,101368.24
2019-05-26T03:53:12.397Z,101360.48
2019-05-26T03:55:41.846Z,101362.38
2019-05-26T03:58:11.306Z,101362.91
2019-05-26T04:00:40.758Z,101359.19
2019-05-26T04:03:10.210Z,101352.36
2019-05-26T04:05:39.686Z,101349.44
2019-05-26T04:08:09.222Z,101338.20
2019-05-26T04:10:38.669Z,101346.19
2019-05-26T04:13:08.121Z,101337.20
2019-05-26T04:15:37.600Z,101334.23
2019-05-26T04:18:07.039Z,101340.02
2019-05-26T04:20:36.673Z,101325.74
2019-05-26T04:23:06.172Z,101318.48
2019-05-26T04:25:35.690Z,101314.28
2019-05-26T04:28:05.136Z,101311.78
2019-05-26T04:30:34.584Z,101308.17
2019-05-26T04:33:04.079Z,101307.33
2019-05-26T04:35:33.709Z,101304.05
2019-05-26T04:38:03.134Z,101301.63
2019-05-26T04:40:32.569Z,101307.01
2019-05-26T04:43:01.985Z,101303.28
2019-05-26T04:45:33.225Z,101299.73
2019-05-26T04:48:02.643Z,101299.59
2019-05-26T04:50:32.101Z,101301.48
2019-05-26T04:53:06.738Z,101296.05
2019-05-26T04:55:32.656Z,101298.25
2019-05-26T04:58:02.102Z,101302.05
2019-05-26T05:00:31.635Z,101291.13
2019-05-26T05:03:01.124Z,101282.29
2019-05-26T05:05:30.582Z,101282.73
2019-05-26T05:08:00.004Z,101287.63
2019-05-26T05:10:41.870Z,101286.05
2019-05-26T05:13:00.649Z,101271.80
2019-05-26T05:15:30.108Z,101268.59
2019-05-26T05:17:59.525Z,101282.69
2019-05-26T05:20:29.067Z,101280.78
2019-05-26T05:22:58.480Z,101269.28
2019-05-26T05:25:27.982Z,101266.19
2019-05-26T05:27:57.403Z,101261.70
2019-05-26T05:30:27.061Z,101259.45
2019-05-26T05:32:56.486Z,101248.45
2019-05-26T05:35:26.148Z,101264.33
2019-05-26T05:37:55.670Z,101258.91
2019-05-26T05:40:25.261Z,101252.48
2019-05-26T05:42:54.682Z,101249.56
2019-05-26T05:45:24.212Z,101254.67
2019-05-26T05:47:53.643Z,101244.71
2019-05-26T05:50:23.286Z,101250.59
2019-05-26T05:52:52.712Z,101251.47
2019-05-26T05:55:22.216Z,101248.28
2019-05-26T05:57:51.709Z,101245.02
2019-05-26T06:00:21.604Z,101243.80
2019-05-26T06:02:51.016Z,101241.39
2019-05-26T06:05:20.543Z,101239.14
2019-05-26T06:07:49.964Z,101234.18
2019-05-26T06:10:21.477Z,101233.87
2019-05-26T06:12:51.527Z,101239.45
2019-05-26T06:15:21.194Z,101230.86
2019-05-26T06:17:50.641Z,101224.49
2019-05-26T06:20:21.350Z,101225.09
2019-05-26T06:22:50.847Z,101230.50
2019-05-26T06:25:20.426Z,101224.75
2019-05-26T06:27:50.244Z,101230.58
2019-05-26T06:30:20.990Z,101218.16
2019-05-26T06:32:50.404Z,101220.33
2019-05-26T06:35:19.843Z,101208.45
2019-05-26T06:37:49.362Z,101223.27
2019-05-26T06:40:19.126Z,101217.05
2019-05-26T06:42:48.663Z,101227.22
2019-05-26T06:45:19.682Z,101226.44
2019-05-26T06:47:50.714Z,101220.07
2019-05-26T06:50:20.206Z,101227.55
2019-05-26T06:52:49.666Z,101219.92
2019-05-26T06:55:19.176Z,101231.50
2019-05-26T06:57:48.570Z,101217.44
2019-05-26T07:00:18.676Z,101222.70
2019-05-26T07:02:48.143Z,101220.95
2019-05-26T07:05:18.577Z,101236.95
2019-05-26T07:07:48.331Z,101221.76
2019-05-26T07:10:18.351Z,101209.89
2019-05-26T07:12:47.923Z,101214.32
2019-05-26T07:15:19.183Z,101217.34
2019-05-26T07:17:48.754Z,101216.08
2019-05-26T07:20:18.633Z,101217.59
2019-05-26T07:22:48.302Z,101217.16
2019-05-26T07:25:17.873Z,101215.81
2019-05-26T07:27:47.399Z,101218.08
2019-05-26T07:30:17.147Z,101212.80
2019-05-26T07:32:46.623Z,101212.06
2019-05-26T07:35:16.115Z,101219.22
2019-05-26T07:37:45.895Z,101209.50
2019-05-26T07:40:15.399Z,101204.17
2019-05-26T07:42:44.872Z,101212.06
2019-05-26T07:45:14.571Z,101212.78
2019-05-26T07:47:44.030Z,101197.32
2019-05-26T07:50:14.072Z,101205.90
2019-05-26T07:52:43.516Z,101206.09
2019-05-26T07:55:13.396Z,101218.10
2019-05-26T07:57:44.415Z,101199.19
2019-05-26T08:00:16.449Z,101202.14
2019-05-26T08:02:45.926Z,101186.83
2019-05-26T08:05:15.478Z,101204.55
2019-05-26T08:07:45.162Z,101193.22
2019-05-26T08:10:16.166Z,101190.91
2019-05-26T08:12:45.631Z,101179.70
2019-05-26T08:15:15.404Z,101192.69
2019-05-26T08:17:44.978Z,101177.59
2019-05-26T08:20:14.826Z,101178.97
2019-05-26T08:22:45.840Z,101188.34
2019-05-26T08:25:15.565Z,101187.55
2019-05-26T08:27:45.017Z,101178.46
2019-05-26T08:30:14.873Z,101196.63
2019-05-26T08:32:44.325Z,101171.44
2019-05-26T08:35:14.352Z,101179.65
2019-05-26T08:37:43.987Z,101178.13
2019-05-26T08:40:19.518Z,101189.19
2019-05-26T08:42:51.744Z,101187.52
2019-05-26T08:45:22.943Z,101173.34
2019-05-26T08:47:52.796Z,101176.09
2019-05-26T08:50:23.800Z,101170.13
2019-05-26T08:52:53.255Z,101178.72
2019-05-26T08:55:24.468Z,101198.86
2019-05-26T08:57:53.935Z,101166.63
2019-05-26T09:00:23.773Z,101169.88
2019-05-26T09:02:53.393Z,101166.66
2019-05-26T09:05:22.895Z,101162.64
2019-05-26T09:07:52.372Z,101166.97
2019-05-26T09:10:21.941Z,101185.08
2019-05-26T09:13:00.980Z,101165.02
2019-05-26T09:15:24.323Z,101157.22
2019-05-26T09:17:55.470Z,101152.25
2019-05-26T09:20:25.322Z,101156.29
2019-05-26T09:22:55.505Z,101160.65
2019-05-26T09:25:25.256Z,101156.70
2019-05-26T09:27:54.718Z,101150.80
2019-05-26T09:30:24.674Z,101157.88
2019-05-26T09:32:54.117Z,101162.02
2019-05-26T09:35:23.625Z,101173.04
2019-05-26T09:37:55.526Z,101143.84
2019-05-26T09:40:25.064Z,101155.44
2019-05-26T09:42:54.526Z,101148.92
2019-05-26T09:45:24.059Z,101149.67
2019-05-26T09:47:53.576Z,101142.37
2019-05-26T09:50:23.199Z,101141.59
2019-05-26T09:52:52.889Z,101141.59
2019-05-26T09:55:22.424Z,101149.56
2019-05-26T09:57:52.034Z,101149.68
2019-05-26T10:00:22.003Z,101149.68
2019-05-26T10:02:51.796Z,101139.75
2019-05-26T10:05:21.547Z,101158.16
2019-05-26T10:07:51.035Z,101149.94
2019-05-26T10:10:20.617Z,101150.07
2019-05-26T10:12:50.046Z,101148.98
2019-05-26T10:15:19.720Z,101149.70
2019-05-26T10:17:49.169Z,101137.85
2019-05-26T10:20:18.675Z,101139.47
2019-05-26T10:22:48.087Z,101140.39
2019-05-26T10:25:17.695Z,101141.73
2019-05-26T10:27:47.107Z,101127.91
2019-05-26T10:30:18.368Z,101127.91
2019-05-26T10:32:47.928Z,101135.81
2019-05-26T10:35:17.520Z,101139.53
2019-05-26T10:37:48.442Z,101133.84
2019-05-26T10:40:17.954Z,101123.05
2019-05-26T10:42:47.375Z,101133.59
2019-05-26T10:45:17.223Z,101130.45
2019-05-26T10:47:48.188Z,101114.59
2019-05-26T10:50:17.961Z,101126.81
2019-05-26T10:52:48.950Z,101126.81
2019-05-26T10:55:18.472Z,101144.85
2019-05-26T10:57:49.262Z,101135.52
2019-05-26T11:00:19.054Z,101150.64
2019-05-26T11:02:48.533Z,101126.20
2019-05-26T11:05:18.128Z,101129.82
2019-05-26T11:07:47.681Z,101134.92
2019-05-26T11:10:17.319Z,101121.98
2019-05-26T11:12:46.764Z,101121.13
2019-05-26T11:15:16.570Z,101114.21
2019-05-26T11:17:46.196Z,101106.84
2019-05-26T11:20:16.004Z,101116.13
2019-05-26T11:22:45.456Z,101108.80
2019-05-26T11:25:15.098Z,101109.88
2019-05-26T11:27:44.650Z,101101.90
2019-05-26T11:30:15.141Z,101101.90
2019-05-26T11:32:44.605Z,101080.73
2019-05-26T11:35:16.299Z,101096.58
2019-05-26T11:37:45.772Z,101096.69
2019-05-26T11:40:17.110Z,101092.72
2019-05-26T11:42:46.568Z,101081.42
2019-05-26T11:45:16.157Z,101087.00
2019-05-26T11:47:45.606Z,101089.66
2019-05-26T11:50:15.715Z,101082.03
2019-05-26T11:52:45.509Z,101080.60
2019-05-26T11:55:15.529Z,101071.74
2019-05-26T11:57:44.981Z,101068.02
2019-05-26T12:00:16.623Z,101073.23
2019-05-26T12:02:46.701Z,101070.81
2019-05-26T12:05:17.768Z,101066.09
2019-05-26T12:07:47.622Z,101066.95
2019-05-26T12:10:17.351Z,101062.31
2019-05-26T12:12:46.879Z,101058.78
2019-05-26T12:15:17.236Z,101058.78
2019-05-26T12:17:46.791Z,101064.88
2019-05-26T12:20:16.577Z,101058.84
2019-05-26T12:22:45.998Z,101059.20
2019-05-26T12:25:16.962Z,101046.97
2019-05-26T12:27:46.524Z,101041.80
2019-05-26T12:30:18.448Z,101044.20
2019-05-26T12:32:47.898Z,101044.20
2019-05-26T12:35:17.448Z,101043.11
2019-05-26T12:37:48.579Z,101038.81
2019-05-26T12:40:18.420Z,101021.02
2019-05-26T12:42:48.386Z,101022.69
2019-05-26T12:45:18.530Z,101016.03
2019-05-26T12:47:48.814Z,101027.36
2019-05-26T12:50:18.369Z,101017.00
2019-05-26T12:52:48.219Z,101018.23
2019-05-26T12:55:17.771Z,101018.84
2019-05-26T12:57:47.223Z,101011.14
2019-05-26T13:00:17.310Z,101016.58
2019-05-26T13:02:46.829Z,101002.13
2019-05-26T13:05:17.394Z,101005.27
2019-05-26T13:07:46.940Z,101002.38
2019-05-26T13:10:16.897Z,101013.52
2019-05-26T13:12:46.345Z,100992.93
2019-05-26T13:15:16.502Z,100999.03
2019-05-26T13:17:45.958Z,100994.45
2019-05-26T13:20:16.290Z,100989.50
2019-05-26T13:22:45.813Z,100993.60
2019-05-26T13:25:16.085Z,100987.59
2019-05-26T13:27:45.530Z,100995.45
2019-05-26T13:30:18.012Z,100984.80
2019-05-26T13:32:47.466Z,100988.67
2019-05-26T13:35:17.703Z,100969.80
2019-05-26T13:37:47.137Z,100996.65
2019-05-26T13:40:16.989Z,100975.61
2019-05-26T13:42:46.440Z,100972.12
2019-05-26T13:45:22.913Z,100975.74
2019-05-26T13:47:48.957Z,100976.23
2019-05-26T13:50:19.447Z,100976.23
2019-05-26T13:52:48.994Z,100974.73
2019-05-26T13:55:19.206Z,100983.80
2019-05-26T13:57:49.717Z,100983.80
2019-05-26T14:00:21.399Z,100977.16
2019-05-26T14:02:50.851Z,100975.27
2019-05-26T14:05:21.022Z,100975.27
2019-05-26T14:07:50.745Z,100986.44
2019-05-26T14:10:32.046Z,100994.50
2019-05-26T14:13:01.704Z,100984.39
2019-05-26T14:15:38.164Z,100986.66
2019-05-26T14:18:04.998Z,100998.37
2019-05-26T14:20:37.029Z,101004.86
2019-05-26T14:23:08.043Z,100998.86
2019-05-26T14:25:38.394Z,100998.80
2019-05-26T14:28:09.131Z,101009.05
2019-05-26T14:30:38.669Z,101008.11
2019-05-26T14:33:08.374Z,101013.81
2019-05-26T14:35:38.141Z,101009.22
2019-05-26T14:38:07.689Z,101011.65
2019-05-26T14:40:37.119Z,101022.27
2019-05-26T14:43:06.753Z,101034.09
2019-05-26T14:45:51.958Z,101015.27
2019-05-26T14:48:07.986Z,101013.00
2019-05-26T14:50:40.650Z,101001.95
2019-05-26T14:53:08.961Z,101006.49
2019-05-26T14:55:38.416Z,100999.78
2019-05-26T14:58:15.638Z,100995.72
2019-05-26T15:00:39.201Z,100994.69
2019-05-26T15:03:11.702Z,100990.63
2019-05-26T15:05:42.421Z,100989.58
2019-05-26T15:08:12.702Z,100990.59
2019-05-26T15:10:42.108Z,100977.78
2019-05-26T15:13:11.527Z,100974.86
2019-05-26T15:15:41.046Z,100969.42
2019-05-26T15:18:10.461Z,100971.86
2019-05-26T15:20:40.013Z,100975.08
2019-05-26T15:23:09.457Z,100964.34
2019-05-26T15:25:39.033Z,100973.88
2019-05-26T15:28:09.941Z,100965.09
2019-05-26T15:30:39.472Z,100974.30
2019-05-26T15:33:08.962Z,100979.37
2019-05-26T15:35:38.485Z,100965.77
2019-05-26T15:38:07.936Z,100957.16
2019-05-26T15:40:37.519Z,100958.74
2019-05-26T15:43:07.228Z,100968.58
2019-05-26T15:45:36.723Z,100970.18
2019-05-26T15:48:06.350Z,100969.20
2019-05-26T15:50:35.801Z,100962.22
2019-05-26T15:53:05.404Z,100970.83
2019-05-26T15:55:35.059Z,100969.05
2019-05-26T15:58:04.672Z,100974.14
2019-05-26T16:00:34.260Z,100963.28
2019-05-26T16:03:03.790Z,100958.83
2019-05-26T16:05:35.236Z,100956.20
2019-05-26T16:08:04.685Z,100958.83
2019-05-26T16:10:34.140Z,100950.34
2019-05-26T16:13:03.660Z,100957.41
2019-05-26T16:15:33.103Z,100946.27
2019-05-26T16:18:02.611Z,100941.93
2019-05-26T16:20:32.041Z,100945.89
2019-05-26T16:23:03.080Z,100943.92
2019-05-26T16:25:32.585Z,100943.82
2019-05-26T16:28:02.036Z,100934.48
2019-05-26T16:30:31.505Z,100940.43
2019-05-26T16:33:00.975Z,100937.77
2019-05-26T16:35:30.542Z,100935.61
2019-05-26T16:37:59.996Z,100932.00
2019-05-26T16:40:29.449Z,100917.11
2019-05-26T16:42:58.999Z,100917.32
2019-05-26T16:45:28.447Z,100922.03
2019-05-26T16:47:58.070Z,100919.67
2019-05-26T16:50:27.939Z,100911.36
2019-05-26T16:52:57.608Z,100920.03
2019-05-26T16:55:27.069Z,100918.15
2019-05-26T16:57:56.503Z,100904.00
2019-05-26T17:00:27.611Z,100896.00
2019-05-26T17:02:57.044Z,100906.19
2019-05-26T17:05:26.494Z,100903.91
2019-05-26T17:07:55.989Z,100898.05
2019-05-26T17:10:25.467Z,100896.73
2019-05-26T17:12:54.845Z,100891.47
2019-05-26T17:15:24.301Z,100899.57
2019-05-26T17:17:53.713Z,100895.61
2019-05-26T17:20:23.871Z,100894.03
2019-05-26T17:22:53.279Z,100894.31
2019-05-26T17:25:22.736Z,100893.17
2019-05-26T17:27:52.240Z,100884.41
2019-05-26T17:30:22.524Z,100887.52
2019-05-26T17:32:52.010Z,100886.09
2019-05-26T17:35:21.542Z,100876.38
2019-05-26T17:37:50.950Z,100877.50
2019-05-26T17:40:22.778Z,100862.34
2019-05-26T17:42:53.000Z,100874.30
2019-05-26T17:45:22.591Z,100864.21
2019-05-26T17:47:52.011Z,100885.72
2019-05-26T17:50:21.606Z,100865.23
2019-05-26T17:52:51.013Z,100867.41
2019-05-26T17:55:20.542Z,100862.69
2019-05-26T17:57:49.967Z,100866.96
2019-05-26T18:00:20.065Z,100859.30
2019-05-26T18:02:49.610Z,100885.15
2019-05-26T18:05:19.170Z,100872.06
2019-05-26T18:07:48.583Z,100882.05
2019-05-26T18:10:19.687Z,100877.31
2019-05-26T18:12:49.100Z,100874.47
2019-05-26T18:15:18.624Z,100878.11
2019-05-26T18:17:48.069Z,100876.01
2019-05-26T18:20:17.771Z,100881.09
2019-05-26T18:22:47.283Z,100881.30
2019-05-26T18:25:17.303Z,100880.69
2019-05-26T18:27:46.900Z,100875.73
2019-05-26T18:30:16.546Z,100876.16
2019-05-26T18:32:46.042Z,100865.89
2019-05-26T18:35:15.703Z,100861.65
2019-05-26T18:37:45.146Z,100859.86
2019-05-26T18:40:15.212Z,100856.76
2019-05-26T18:42:44.783Z,100863.87
2019-05-26T18:45:14.294Z,100867.45
2019-05-26T18:47:43.705Z,100869.78
2019-05-26T18:50:13.350Z,100867.09
2019-05-26T18:52:42.813Z,100865.09
2019-05-26T18:55:12.681Z,100861.94
2019-05-26T18:57:42.182Z,100863.72
2019-05-26T19:00:12.588Z,100872.83
2019-05-26T19:02:42.053Z,100856.64
2019-05-26T19:05:11.692Z,100858.81
2019-05-26T19:07:41.230Z,100850.37
2019-05-26T19:10:11.345Z,100852.25
2019-05-26T19:12:40.969Z,100854.51
2019-05-26T19:15:10.763Z,100857.61
2019-05-26T19:17:40.197Z,100862.58
2019-05-26T19:20:16.680Z,100856.47
2019-05-26T19:22:41.842Z,100871.94
2019-05-26T19:25:11.807Z,100862.20
2019-05-26T19:27:41.483Z,100874.91
2019-05-26T19:30:11.339Z,100867.84
2019-05-26T19:32:40.790Z,100852.05
2019-05-26T19:35:10.554Z,100857.31
2019-05-26T19:37:41.567Z,100852.90
2019-05-26T19:40:12.126Z,100853.13
2019-05-26T19:42:41.659Z,100857.08
2019-05-26T19:45:11.210Z,100856.70
2019-05-26T19:47:40.657Z,100855.00
2019-05-26T19:50:10.813Z,100850.11
2019-05-26T19:52:40.267Z,100847.57
2019-05-26T19:55:09.839Z,100850.84
2019-05-26T19:57:39.285Z,100851.98
2019-05-26T20:00:13.468Z,100864.86
2019-05-26T20:02:42.919Z,100862.69
2019-05-26T20:05:12.781Z,100861.08
2019-05-26T20:07:42.377Z,100862.48
2019-05-26T20:10:13.629Z,100867.66
2019-05-26T20:12:43.967Z,100864.56
2019-05-26T20:15:13.920Z,100860.15
2019-05-26T20:17:43.479Z,100865.24
2019-05-26T20:20:13.640Z,100862.31
2019-05-26T20:22:43.079Z,100859.12
2019-05-26T20:25:13.154Z,100855.09
2019-05-26T20:27:44.121Z,100858.10
2019-05-26T20:30:13.896Z,100857.34
2019-05-26T20:32:43.431Z,100854.80
2019-05-26T20:35:12.940Z,100853.77
2019-05-26T20:37:42.378Z,100855.84
2019-05-26T20:40:12.535Z,100849.73
2019-05-26T20:42:41.991Z,100850.84
2019-05-26T20:45:12.701Z,100847.19
2019-05-26T20:47:42.173Z,100850.97
2019-05-26T20:50:27.693Z,100845.02
2019-05-26T20:52:43.642Z,100847.19
2019-05-26T20:55:13.525Z,100848.89
2019-05-26T20:57:43.265Z,100847.39
2019-05-26T21:00:14.715Z,100842.54
2019-05-26T21:02:44.580Z,100851.67
2019-05-26T21:05:14.428Z,100856.00
2019-05-26T21:07:43.897Z,100848.24
2019-05-26T21:10:14.575Z,100843.77
2019-05-26T21:12:44.106Z,100852.14
2019-05-26T21:15:13.728Z,100849.56
2019-05-26T21:17:43.310Z,100854.39
2019-05-26T21:20:13.557Z,100846.78
2019-05-26T21:22:43.283Z,100843.68
2019-05-26T21:25:13.537Z,100837.95
2019-05-26T21:27:43.141Z,100845.38
2019-05-26T21:30:12.696Z,100840.20
2019-05-26T21:32:42.133Z,100845.00
2019-05-26T21:35:13.225Z,100846.78
2019-05-26T21:37:42.697Z,100848.09
2019-05-26T21:40:12.647Z,100853.92
2019-05-26T21:42:42.106Z,100844.06
2019-05-26T21:45:12.071Z,100837.95
2019-05-26T21:47:41.542Z,100852.98
2019-05-26T21:50:12.316Z,100854.22
2019-05-26T21:52:41.834Z,100848.86
2019-05-26T21:55:11.802Z,100844.91
2019-05-26T21:57:41.291Z,100841.34
2019-05-26T22:00:13.133Z,100837.86
2019-05-26T22:02:42.660Z,100844.06
2019-05-26T22:05:13.115Z,100840.58
2019-05-26T22:07:42.569Z,100840.67
2019-05-26T22:10:12.538Z,100837.56
2019-05-26T22:12:42.012Z,100842.75
2019-05-26T22:15:11.648Z,100837.66
2019-05-26T22:17:43.215Z,100840.58
2019-05-26T22:20:13.423Z,100841.98
2019-05-26T22:22:43.612Z,100848.09
2019-05-26T22:25:13.170Z,100845.76
2019-05-26T22:27:42.799Z,100850.73
2019-05-26T22:30:12.667Z,100848.02
2019-05-26T22:32:42.122Z,100849.80
2019-05-26T22:35:11.688Z,100848.66
2019-05-26T22:37:41.903Z,100843.30
2019-05-26T22:40:11.965Z,100849.18
2019-05-26T22:42:41.479Z,100839.20
2019-05-26T22:45:11.683Z,100835.63
2019-05-26T22:47:41.201Z,100830.36
2019-05-26T22:50:11.962Z,100826.59
2019-05-26T22:52:41.497Z,100827.15
2019-05-26T22:55:11.414Z,100817.17
2019-05-26T22:57:41.015Z,100828.55
2019-05-26T23:00:13.233Z,100823.75
2019-05-26T23:02:42.701Z,100829.11
2019-05-26T23:05:15.008Z,100832.20
2019-05-26T23:07:44.464Z,100829.34
2019-05-26T23:10:14.180Z,100833.28
2019-05-26T23:12:43.625Z,100838.61
2019-05-26T23:15:13.416Z,100836.91
2019-05-26T23:17:42.852Z,100827.78
2019-05-26T23:20:12.440Z,100828.34
2019-05-26T23:22:41.897Z,100829.66
2019-05-26T23:25:11.897Z,100831.61
2019-05-26T23:27:43.092Z,100826.95
2019-05-26T23:30:13.887Z,100815.28
2019-05-26T23:32:43.435Z,100811.97
2019-05-26T23:35:12.968Z,100805.39
2019-05-26T23:37:42.398Z,100806.80
2019-05-26T23:40:12.691Z,100814.62
2019-05-26T23:42:42.118Z,100802.78
2019-05-26T23:45:11.703Z,100798.77
2019-05-26T23:47:41.134Z,100810.39
2019-05-26T23:50:10.917Z,100820.78
2019-05-26T23:52:40.407Z,100821.94
2019-05-26T23:55:10.409Z,100819.64
2019-05-26T23:57:40.636Z,100813.07
